WetterOnline ( http://www.wetteronline.de )

Wetter aktuell Offenburg

Aktuelles Wetter: Lahr (156m)

6-stündlich | Neueste Meldungen
Ortszeit Temperatur Wetter
So, 17.02. 1:00 0.6° C wolkenlos
Sa, 16.02. 19:00 6.9° C wolkenlos
Sa, 16.02. 13:00 11.9° C wolkenlos
Sa, 16.02. 7:00 -1.4° C wolkenlos
Sa, 16.02. 1:00 -0.2° C wolkenlos
Fr, 15.02. 19:00 5.3° C wolkenlos
Fr, 15.02. 13:00 7.7° C wolkenlos
Fr, 15.02. 7:00 -2.7° C wolkenlos
Ortszeit Temperatur Wetter
So, 17.02. 6:00 -0.8° C wolkig
So, 17.02. 5:40 -0.8° C wolkig
So, 17.02. 5:30 -0.5° C wolkig
So, 17.02. 5:20 -0.5° C wolkig
So, 17.02. 5:10 -1.2° C wolkig
So, 17.02. 5:00 -2.0° C wolkig
So, 17.02. 4:50 -2.0° C wolkig
So, 17.02. 4:30 -0.7° C wolkig
So, 17.02. 4:00 -0.9° C wolkig
So, 17.02. 3:30 -0.0° C wolkig
So, 17.02. 3:00 -0.0° C wolkig
Ortszeit Relative Feuchte Sichtweite
So, 17.02. 1:00 90% 13 km
Sa, 16.02. 19:00 82% 13 km
Sa, 16.02. 13:00 46% 17 km
Sa, 16.02. 7:00 92% 18 km
Sa, 16.02. 1:00 96% 8 km
Fr, 15.02. 19:00 82% 9 km
Fr, 15.02. 13:00 66% 13 km
Fr, 15.02. 7:00 96% 10 km
Ortszeit Relative Feuchte Sichtweite
So, 17.02. 6:00 91% 15 km
So, 17.02. 5:40 87% -
So, 17.02. 5:30 91% 19 km
So, 17.02. 5:20 91% -
So, 17.02. 5:10 93% -
So, 17.02. 5:00 91% 12 km
So, 17.02. 4:50 91% -
So, 17.02. 4:30 94% 13 km
So, 17.02. 4:00 92% 12 km
So, 17.02. 3:30 95% 7 km
So, 17.02. 3:00 93% 11 km
Ortszeit Niederschlagsmenge Niederschlagsart
So, 17.02. 1:00 0.0 l/m2 in 6 Std. -
Sa, 16.02. 19:00 0.0 l/m2 in 12 Std. -
Sa, 16.02. 13:00 0.0 l/m2 in 6 Std. -
Sa, 16.02. 7:00 0.0 l/m2 in 12 Std. -
Sa, 16.02. 1:00 0.0 l/m2 in 6 Std. -
Fr, 15.02. 19:00 0.0 l/m2 in 12 Std. -
Fr, 15.02. 13:00 0.0 l/m2 in 6 Std. -
Fr, 15.02. 7:00 0.0 l/m2 in 12 Std. -
Ortszeit Niederschlagsmenge Niederschlagsart
So, 17.02. 6:00 0.0 l/m2 in 1 Std. -
So, 17.02. 5:40 keine Meldung -
So, 17.02. 5:30 0.0 l/m2 in 1 Std. -
So, 17.02. 5:20 keine Meldung -
So, 17.02. 5:10 keine Meldung -
So, 17.02. 5:00 0.0 l/m2 in 1 Std. -
So, 17.02. 4:50 keine Meldung -
So, 17.02. 4:30 0.0 l/m2 in 1 Std. -
So, 17.02. 4:00 0.0 l/m2 in 1 Std. -
So, 17.02. 3:30 0.0 l/m2 in 1 Std. -
So, 17.02. 3:00 0.0 l/m2 in 1 Std. -
Ortszeit Stärke Spitze Richtung
km/h Bft. km/h Grad Sektor
So, 17.02. 1:00 2 1 7 70° O
Sa, 16.02. 19:00 4 1 7 230° SW
Sa, 16.02. 13:00 4 1 14 240° SW
Sa, 16.02. 7:00 7 2 11 250° W
Sa, 16.02. 1:00 4 1 11 280° W
Fr, 15.02. 19:00 4 1 11 90° O
Fr, 15.02. 13:00 4 1 7 10° N
Fr, 15.02. 7:00 0 0 11 - -
Ortszeit Stärke Spitze Richtung
km/h Bft. km/h Grad Sektor
So, 17.02. 6:00 4 1 11 140° SO
So, 17.02. 5:40 4 1 - 190° S
So, 17.02. 5:30 7 2 7 180° S
So, 17.02. 5:20 7 2 - 180° S
So, 17.02. 5:10 7 2 - 200° S
So, 17.02. 5:00 4 1 7 280° W
So, 17.02. 4:50 4 1 - 280° W
So, 17.02. 4:30 4 1 7 220° SW
So, 17.02. 4:00 4 1 4 250° W
So, 17.02. 3:30 4 1 4 30° NO
So, 17.02. 3:00 4 1 4 240° SW
Ortszeit Untergrenze Bedeckung Gattung
total tief tief mittel hoch
So, 17.02. 1:00 - 0/8 0/8 - - -
Sa, 16.02. 19:00 - 0/8 0/8 - - -
Sa, 16.02. 13:00 - 0/8 0/8 - - -
Sa, 16.02. 7:00 - 0/8 0/8 - - -
Sa, 16.02. 1:00 - 0/8 0/8 - - -
Fr, 15.02. 19:00 - 0/8 0/8 - - -
Fr, 15.02. 13:00 - 0/8 0/8 - - -
Fr, 15.02. 7:00 - 0/8 0/8 - - -
Ortszeit Bedeckungsgrad in Achtel und Wolkenuntergrenze
So, 17.02. 6:00 8(10500m) 8(10500m)
So, 17.02. 5:40 8(10500m)
So, 17.02. 5:30 8(10500m)
So, 17.02. 5:20 8(10500m)
So, 17.02. 5:10 8(10500m)
So, 17.02. 5:00 8(10500m)
So, 17.02. 4:50 8(10500m)
So, 17.02. 4:30 8(10500m)
So, 17.02. 4:00 8(10500m) 8(10500m)
So, 17.02. 3:30 8(10500m) 8(10500m)
So, 17.02. 3:00 8(10500m) 8(10500m)
Ortszeit Luftdruck NN (hPa) Tendenz (hPa in 3 Std.)
So, 17.02. 1:00 1028 - 0,3
Sa, 16.02. 19:00 1028 0,0
Sa, 16.02. 13:00 1029 - 0,9
Sa, 16.02. 7:00 1030 - 0,1
Sa, 16.02. 1:00 1031 - 0,4
Fr, 15.02. 19:00 1031 - 0,4
Fr, 15.02. 13:00 1033 - 1,4
Fr, 15.02. 7:00 1035 0,0
Ortszeit Luftdruck NN (hPa) Tendenz (hPa in 3 Std.)
So, 17.02. 6:00 1027 - 0,2
So, 17.02. 5:40 1027 keine Meldung
So, 17.02. 5:30 1027 - 0,5
So, 17.02. 5:20 1027 keine Meldung
So, 17.02. 5:10 1027 keine Meldung
So, 17.02. 5:00 1027 - 0,6
So, 17.02. 4:50 1027 keine Meldung
So, 17.02. 4:30 1027 - 0,8
So, 17.02. 4:00 1027 - 0,4
So, 17.02. 3:30 1027 - 0,3
So, 17.02. 3:00 1027 - 0,2
Ortszeit Schneehöhe (cm)
So, 17.02. 1:00 0
Sa, 16.02. 19:00 0
Sa, 16.02. 13:00 0
Sa, 16.02. 7:00 0
Sa, 16.02. 1:00 0
Fr, 15.02. 19:00 0
Fr, 15.02. 13:00 0
Fr, 15.02. 7:00 0
Ortszeit Schneehöhe (cm)
So, 17.02. 6:00 0
So, 17.02. 5:40 0
So, 17.02. 5:30 0
So, 17.02. 5:20 0
So, 17.02. 5:10 0
So, 17.02. 5:00 0
So, 17.02. 4:50 0
So, 17.02. 4:30 0
So, 17.02. 4:00 0
So, 17.02. 3:30 0
So, 17.02. 3:00 0
Link zu dieser Seite / Seite empfehlen

Das Wetter in ...